createdAt,value
2019-04-21T00:02:11.047Z,10.50
2019-04-21T00:04:54.995Z,11.13
2019-04-21T00:07:37.742Z,10.83
2019-04-21T00:10:18.853Z,10.77
2019-04-21T00:12:49.256Z,11.13
2019-04-21T00:15:16.735Z,10.90
2019-04-21T00:17:39.080Z,10.70
2019-04-21T00:20:23.842Z,11.47
2019-04-21T00:23:05.926Z,10.67
2019-04-21T00:25:36.195Z,11.10
2019-04-21T00:28:16.873Z,11.20
2019-04-21T00:30:50.840Z,10.87
2019-04-21T00:33:17.125Z,11.43
2019-04-21T00:35:49.919Z,11.30
2019-04-21T00:38:56.369Z,11.43
2019-04-21T00:41:16.101Z,11.13
2019-04-21T00:43:46.331Z,11.43
2019-04-21T00:46:10.818Z,11.23
2019-04-21T00:48:56.479Z,12.10
2019-04-21T00:51:49.838Z,10.63
2019-04-21T00:54:16.692Z,10.80
2019-04-21T00:56:50.043Z,11.23
2019-04-21T00:59:20.016Z,11.23
2019-04-21T01:01:49.386Z,11.20
2019-04-21T01:04:30.724Z,10.83
2019-04-21T01:07:03.041Z,11.13
2019-04-21T01:09:29.076Z,10.90
2019-04-21T01:12:07.825Z,10.93
2019-04-21T01:14:50.261Z,11.20
2019-04-21T01:17:19.299Z,10.67
2019-04-21T01:19:43.898Z,11.20
2019-04-21T01:22:05.788Z,11.90
2019-04-21T01:24:43.371Z,11.33
2019-04-21T01:27:25.045Z,10.90
2019-04-21T01:30:05.688Z,11.23
2019-04-21T01:32:46.985Z,10.83
2019-04-21T01:35:21.135Z,13.33
2019-04-21T01:38:03.040Z,12.07
2019-04-21T01:40:40.838Z,12.37
2019-04-21T01:43:17.612Z,12.13
2019-04-21T01:45:53.517Z,11.60
2019-04-21T01:48:25.750Z,11.50
2019-04-21T01:50:56.795Z,11.80
2019-04-21T01:54:03.539Z,12.30
2019-04-21T01:57:03.372Z,11.40
2019-04-21T01:59:30.551Z,12.30
2019-04-21T02:02:15.997Z,11.87
2019-04-21T02:04:49.192Z,12.43
2019-04-21T02:07:15.182Z,12.70
2019-04-21T02:09:55.388Z,12.97
2019-04-21T02:12:41.066Z,12.83
2019-04-21T02:15:00.735Z,13.40
2019-04-21T02:17:29.750Z,13.00
2019-04-21T02:19:56.166Z,12.53
2019-04-21T02:22:46.749Z,13.23
2019-04-21T02:27:47.445Z,13.13
2019-04-21T02:30:27.612Z,13.33
2019-04-21T02:33:21.752Z,12.93
2019-04-21T02:38:08.913Z,13.33
2019-04-21T02:43:18.652Z,12.97
2019-04-21T02:45:56.036Z,13.47
2019-04-21T02:48:30.812Z,13.60
2019-04-21T02:51:01.587Z,13.30
2019-04-21T02:56:11.189Z,13.83
2019-04-21T02:58:57.006Z,13.50
2019-04-21T03:01:49.016Z,14.20
2019-04-21T03:05:02.393Z,14.90
2019-04-21T03:12:37.690Z,13.83
2019-04-21T03:17:49.970Z,15.67
2019-04-21T03:20:23.693Z,15.70
2019-04-21T03:23:00.386Z,14.63
2019-04-21T03:28:06.451Z,15.43
2019-04-21T03:33:59.514Z,15.40
2019-04-21T03:36:12.929Z,15.13
2019-04-21T03:38:37.489Z,15.73
2019-04-21T03:40:57.272Z,15.47
2019-04-21T03:46:23.227Z,15.10
2019-04-21T03:48:44.281Z,15.17
2019-04-21T03:51:31.423Z,15.47
2019-04-21T03:53:48.076Z,15.93
2019-04-21T03:56:27.232Z,15.90
2019-04-21T04:01:41.233Z,15.17
2019-04-21T04:07:42.474Z,15.70
2019-04-21T04:10:02.482Z,15.30
2019-04-21T04:12:28.538Z,15.77
2019-04-21T04:15:12.107Z,16.57
2019-04-21T04:17:40.466Z,15.70
2019-04-21T04:20:11.741Z,15.30
2019-04-21T04:22:52.630Z,14.50
2019-04-21T04:25:18.846Z,14.43
2019-04-21T04:28:05.761Z,14.90
2019-04-21T04:32:59.456Z,13.13
2019-04-21T04:35:45.798Z,13.67
2019-04-21T04:38:03.039Z,12.90
2019-04-21T04:41:07.983Z,13.33
2019-04-21T04:43:54.691Z,13.47
2019-04-21T04:48:45.121Z,13.33
2019-04-21T04:51:12.297Z,13.43
2019-04-21T04:53:47.186Z,13.07
2019-04-21T04:56:50.172Z,13.63
2019-04-21T05:01:46.871Z,14.57
2019-04-21T05:04:07.595Z,14.13
2019-04-21T05:14:41.027Z,15.23
2019-04-21T05:17:10.815Z,16.67
2019-04-21T05:22:04.981Z,14.93
2019-04-21T05:24:33.246Z,14.90
2019-04-21T05:27:02.853Z,14.20
2019-04-21T05:29:54.991Z,13.00
2019-04-21T05:32:45.256Z,13.03
2019-04-21T05:35:36.917Z,12.83
2019-04-21T05:38:17.193Z,12.37
2019-04-21T05:40:41.408Z,13.20
2019-04-21T05:43:26.001Z,13.30
2019-04-21T05:45:58.353Z,13.20
2019-04-21T05:48:39.239Z,13.90
2019-04-21T05:51:03.597Z,13.33
2019-04-21T05:53:42.462Z,14.47
2019-04-21T05:56:15.970Z,14.77
2019-04-21T05:58:48.060Z,15.33
2019-04-21T06:01:43.725Z,14.27
2019-04-21T06:04:03.545Z,13.67
2019-04-21T06:06:33.702Z,12.90
2019-04-21T06:09:00.929Z,14.43
2019-04-21T06:11:36.593Z,14.20
2019-04-21T06:14:31.052Z,15.00
2019-04-21T06:16:54.321Z,14.53
2019-04-21T06:19:24.050Z,15.43
2019-04-21T06:21:44.744Z,15.47
2019-04-21T06:24:21.795Z,15.10
2019-04-21T06:29:30.107Z,15.43
2019-04-21T06:32:28.092Z,16.03
2019-04-21T06:34:53.477Z,15.13
2019-04-21T06:42:54.058Z,15.23
2019-04-21T06:45:20.074Z,15.47
2019-04-21T06:48:02.838Z,15.23
2019-04-21T06:50:35.251Z,14.97
2019-04-21T06:53:22.076Z,15.80
2019-04-21T06:55:32.358Z,15.53
2019-04-21T06:58:07.981Z,14.20
2019-04-21T07:00:38.838Z,15.00
2019-04-21T07:05:50.602Z,14.60
2019-04-21T07:08:29.032Z,15.37
2019-04-21T07:10:54.477Z,15.37
2019-04-21T07:13:29.054Z,14.97
2019-04-21T07:16:07.194Z,14.87
2019-04-21T07:18:41.573Z,15.13
2019-04-21T07:21:07.937Z,14.90
2019-04-21T07:23:47.511Z,14.07
2019-04-21T07:26:10.511Z,13.90
2019-04-21T07:28:56.494Z,14.07
2019-04-21T07:31:31.947Z,14.20
2019-04-21T07:34:00.230Z,15.13
2019-04-21T07:36:38.331Z,13.80
2019-04-21T07:39:04.167Z,14.27
2019-04-21T07:41:31.030Z,13.73
2019-04-21T07:44:00.392Z,13.80
2019-04-21T07:46:36.589Z,13.80
2019-04-21T07:49:38.173Z,15.43
2019-04-21T07:52:48.964Z,13.30
2019-04-21T07:57:45.731Z,13.33
2019-04-21T08:00:29.331Z,13.17
2019-04-21T08:03:00.452Z,13.27
2019-04-21T08:05:31.356Z,13.23
2019-04-21T08:07:57.774Z,12.63
2019-04-21T08:10:39.140Z,13.47
2019-04-21T08:13:28.811Z,12.90
2019-04-21T08:16:00.559Z,13.87
2019-04-21T08:18:35.007Z,12.90
2019-04-21T08:21:06.100Z,12.87
2019-04-21T08:23:43.514Z,13.17
2019-04-21T08:26:13.915Z,12.50
2019-04-21T08:28:53.693Z,12.60
2019-04-21T08:31:33.981Z,12.67
2019-04-21T08:34:03.301Z,12.27
2019-04-21T08:36:30.853Z,12.40
2019-04-21T08:38:59.756Z,12.33
2019-04-21T08:41:34.547Z,12.83
2019-04-21T08:44:10.662Z,11.67
2019-04-21T08:46:39.066Z,11.40
2019-04-21T08:49:17.360Z,11.73
2019-04-21T08:51:53.882Z,10.97
2019-04-21T08:57:28.870Z,10.80
2019-04-21T09:00:20.101Z,10.03
2019-04-21T09:03:03.739Z,9.97
2019-04-21T09:05:35.680Z,10.00
2019-04-21T09:08:11.579Z,9.97
2019-04-21T09:10:47.041Z,9.93
2019-04-21T09:13:17.375Z,9.97
2019-04-21T09:15:49.632Z,9.37
2019-04-21T09:18:18.552Z,10.13
2019-04-21T09:21:01.128Z,10.80
2019-04-21T09:23:36.387Z,9.97
2019-04-21T09:26:05.634Z,10.13
2019-04-21T09:28:36.723Z,9.73
2019-04-21T09:30:57.774Z,10.23
2019-04-21T09:33:33.434Z,10.57
2019-04-21T09:36:06.230Z,10.57
2019-04-21T09:38:39.853Z,10.50
2019-04-21T09:41:15.954Z,9.77
2019-04-21T09:43:46.558Z,9.53
2019-04-21T09:46:14.207Z,9.77
2019-04-21T09:48:55.063Z,10.58
2019-04-21T09:51:19.980Z,9.17
2019-04-21T09:53:57.255Z,9.70
2019-04-21T09:56:36.089Z,9.77
2019-04-21T09:59:11.351Z,9.57
2019-04-21T10:01:45.191Z,9.53
2019-04-21T10:04:05.775Z,9.20
2019-04-21T10:06:39.540Z,8.98
2019-04-21T10:09:16.040Z,9.35
2019-04-21T10:11:48.395Z,9.28
2019-04-21T10:14:19.770Z,9.98
2019-04-21T10:17:06.909Z,9.50
2019-04-21T10:19:39.740Z,9.23
2019-04-21T10:22:12.526Z,9.55
2019-04-21T10:24:52.320Z,9.13
2019-04-21T10:27:25.565Z,8.60
2019-04-21T10:29:59.346Z,8.25
2019-04-21T10:32:34.461Z,8.18
2019-04-21T10:35:07.460Z,7.30
2019-04-21T10:37:55.145Z,8.18
2019-04-21T10:40:17.986Z,8.35
2019-04-21T10:42:50.055Z,8.05
2019-04-21T10:45:21.234Z,7.85
2019-04-21T10:47:54.724Z,7.60
2019-04-21T10:50:31.317Z,7.03
2019-04-21T10:53:16.970Z,6.87
2019-04-21T10:56:11.452Z,6.87
2019-04-21T10:58:42.380Z,7.17
2019-04-21T11:01:21.433Z,6.37
2019-04-21T11:04:22.778Z,6.28
2019-04-21T11:07:04.222Z,6.35
2019-04-21T11:09:32.264Z,5.97
2019-04-21T11:12:04.087Z,6.22
2019-04-21T11:14:35.492Z,5.67
2019-04-21T11:17:07.877Z,6.03
2019-04-21T11:19:38.941Z,6.10
2019-04-21T11:22:10.512Z,5.70
2019-04-21T11:24:43.034Z,6.53
2019-04-21T11:27:14.986Z,6.00
2019-04-21T11:29:47.466Z,5.87
2019-04-21T11:32:19.071Z,6.53
2019-04-21T11:34:49.923Z,5.53
2019-04-21T11:37:24.654Z,5.47
2019-04-21T11:40:03.360Z,6.00
2019-04-21T11:42:35.600Z,5.78
2019-04-21T11:45:12.513Z,5.95
2019-04-21T11:48:04.202Z,6.00
2019-04-21T11:50:37.015Z,5.83
2019-04-21T11:53:23.170Z,5.70
2019-04-21T11:56:18.727Z,5.30
2019-04-21T11:59:05.895Z,5.42
2019-04-21T12:01:45.664Z,5.40
2019-04-21T12:04:43.453Z,5.60
2019-04-21T12:07:29.329Z,5.40
2019-04-21T12:10:03.890Z,5.70
2019-04-21T12:12:35.457Z,5.33
2019-04-21T12:15:08.119Z,5.42
2019-04-21T12:17:41.780Z,5.00
2019-04-21T12:20:12.766Z,4.85
2019-04-21T12:22:43.641Z,5.55
2019-04-21T12:25:16.696Z,5.75
2019-04-21T12:27:50.361Z,5.95
2019-04-21T12:30:21.895Z,5.87
2019-04-21T12:33:06.352Z,5.78
2019-04-21T12:35:39.788Z,5.58
2019-04-21T12:38:10.949Z,6.10
2019-04-21T12:40:44.349Z,5.83
2019-04-21T12:43:16.774Z,5.47
2019-04-21T12:45:49.613Z,5.58
2019-04-21T12:48:22.124Z,5.60
2019-04-21T12:50:54.292Z,5.80
2019-04-21T12:53:29.727Z,5.47
2019-04-21T12:56:05.468Z,5.55
2019-04-21T12:58:43.521Z,5.80
2019-04-21T13:01:20.949Z,5.70
2019-04-21T13:03:53.584Z,5.35
2019-04-21T13:06:25.521Z,5.62
2019-04-21T13:09:03.426Z,5.00
2019-04-21T13:11:30.959Z,5.30
2019-04-21T13:14:06.143Z,5.25
2019-04-21T13:16:37.434Z,5.10
2019-04-21T13:19:09.385Z,4.58
2019-04-21T13:21:40.850Z,4.70
2019-04-21T13:24:15.825Z,4.78
2019-04-21T13:26:58.024Z,4.83
2019-04-21T13:32:43.227Z,4.10
2019-04-21T13:35:19.119Z,4.10
2019-04-21T13:37:50.698Z,3.90
2019-04-21T13:41:01.118Z,4.03
2019-04-21T13:43:19.006Z,4.28
2019-04-21T13:45:51.806Z,3.80
2019-04-21T13:48:24.414Z,4.28
2019-04-21T13:50:59.436Z,3.95
2019-04-21T13:53:34.949Z,4.22
2019-04-21T13:56:06.970Z,4.00
2019-04-21T13:58:38.261Z,3.85
2019-04-21T14:01:11.835Z,3.92
2019-04-21T14:03:45.510Z,4.22
2019-04-21T14:06:16.587Z,3.90
2019-04-21T14:08:56.910Z,3.40
2019-04-21T14:11:29.321Z,3.50
2019-04-21T14:14:00.650Z,3.02
2019-04-21T14:16:35.981Z,3.02
2019-04-21T14:19:07.609Z,3.02
2019-04-21T14:21:39.366Z,2.80
2019-04-21T14:24:10.856Z,2.77
2019-04-21T14:26:42.848Z,3.20
2019-04-21T14:29:15.380Z,3.10
2019-04-21T14:31:48.427Z,3.35
2019-04-21T14:34:21.819Z,3.10
2019-04-21T14:36:54.922Z,3.30
2019-04-21T14:39:26.378Z,3.27
2019-04-21T14:41:58.157Z,3.30
2019-04-21T14:44:29.227Z,3.40
2019-04-21T14:47:53.036Z,3.60
2019-04-21T14:50:46.399Z,3.35
2019-04-21T14:53:21.102Z,3.30
2019-04-21T14:55:53.189Z,3.58
2019-04-21T14:58:25.435Z,3.30
2019-04-21T15:01:06.035Z,3.62
2019-04-21T15:03:39.481Z,3.37
2019-04-21T15:06:09.769Z,3.33
2019-04-21T15:08:58.447Z,3.20
2019-04-21T15:11:33.807Z,3.17
2019-04-21T15:14:09.616Z,3.40
2019-04-21T15:16:49.517Z,3.42
2019-04-21T15:19:22.414Z,3.33
2019-04-21T15:21:54.274Z,3.17
2019-04-21T15:24:26.519Z,3.27
2019-04-21T15:26:58.976Z,3.70
2019-04-21T15:29:30.851Z,4.40
2019-04-21T15:32:04.281Z,4.10
2019-04-21T15:34:38.244Z,4.33
2019-04-21T15:37:08.530Z,4.58
2019-04-21T15:39:42.500Z,4.22
2019-04-21T15:42:18.648Z,4.67
2019-04-21T15:44:56.805Z,4.55
2019-04-21T15:47:37.997Z,4.72
2019-04-21T15:50:17.618Z,5.30
2019-04-21T15:52:49.707Z,4.92
2019-04-21T15:55:39.080Z,4.83
2019-04-21T15:58:28.265Z,5.12
2019-04-21T16:01:30.256Z,5.00
2019-04-21T16:04:06.534Z,5.28
2019-04-21T16:06:41.830Z,4.97
2019-04-21T16:09:25.789Z,5.30
2019-04-21T16:11:59.988Z,5.20
2019-04-21T16:14:32.472Z,5.30
2019-04-21T16:17:03.403Z,4.78
2019-04-21T16:19:34.324Z,4.80
2019-04-21T16:22:08.527Z,4.95
2019-04-21T16:24:43.886Z,5.00
2019-04-21T16:27:19.476Z,5.35
2019-04-21T16:29:52.146Z,5.70
2019-04-21T16:32:24.080Z,5.03
2019-04-21T16:35:01.529Z,4.75
2019-04-21T16:37:35.466Z,4.55
2019-04-21T16:40:11.684Z,4.87
2019-04-21T16:42:47.978Z,5.12
2019-04-21T16:45:39.023Z,4.97
2019-04-21T16:48:19.157Z,4.60
2019-04-21T16:50:57.401Z,4.70
2019-04-21T16:53:37.722Z,4.60
2019-04-21T16:56:29.439Z,4.75
2019-04-21T16:59:08.620Z,4.65
2019-04-21T17:01:54.239Z,4.70
2019-04-21T17:04:26.460Z,4.67
2019-04-21T17:07:00.875Z,4.83
2019-04-21T17:09:34.702Z,4.62
2019-04-21T17:12:11.491Z,5.15
2019-04-21T17:14:58.211Z,4.83
2019-04-21T17:17:37.188Z,4.58
2019-04-21T17:19:53.787Z,4.75
2019-04-21T17:22:25.752Z,4.90
2019-04-21T17:25:02.664Z,5.00
2019-04-21T17:27:47.081Z,5.42
2019-04-21T17:30:30.780Z,4.65
2019-04-21T17:33:14.951Z,4.83
2019-04-21T17:35:42.801Z,4.85
2019-04-21T17:38:16.376Z,5.22
2019-04-21T17:40:47.853Z,4.97
2019-04-21T17:43:21.753Z,4.53
2019-04-21T17:45:54.919Z,4.83
2019-04-21T17:48:29.281Z,4.83
2019-04-21T17:51:21.442Z,4.90
2019-04-21T17:54:15.966Z,4.72
2019-04-21T17:59:45.089Z,5.03
2019-04-21T18:02:05.132Z,5.10
2019-04-21T18:04:43.118Z,5.00
2019-04-21T18:07:34.963Z,4.90
2019-04-21T18:10:07.455Z,5.20
2019-04-21T18:12:36.439Z,5.00
2019-04-21T18:15:20.599Z,5.17
2019-04-21T18:17:36.530Z,5.30
2019-04-21T18:20:12.260Z,4.97
2019-04-21T18:23:19.865Z,5.12
2019-04-21T18:25:50.534Z,5.00
2019-04-21T18:28:14.499Z,5.20
2019-04-21T18:31:02.398Z,5.67
2019-04-21T18:33:40.892Z,5.60
2019-04-21T18:36:34.818Z,5.90
2019-04-21T18:39:46.132Z,5.80
2019-04-21T18:42:54.394Z,5.83
2019-04-21T18:46:14.507Z,6.47
2019-04-21T18:48:51.580Z,6.22
2019-04-21T18:51:57.569Z,6.45
2019-04-21T18:54:49.093Z,6.92
2019-04-21T18:57:21.982Z,7.45
2019-04-21T18:59:51.316Z,6.53
2019-04-21T19:02:39.075Z,6.35
2019-04-21T19:05:17.193Z,6.35
2019-04-21T19:08:08.968Z,6.03
2019-04-21T19:10:52.209Z,7.00
2019-04-21T19:13:36.339Z,6.03
2019-04-21T19:16:22.564Z,6.30
2019-04-21T19:19:06.409Z,6.42
2019-04-21T19:21:07.312Z,6.12
2019-04-21T19:24:03.717Z,5.87
2019-04-21T19:26:21.704Z,6.37
2019-04-21T19:28:52.674Z,6.50
2019-04-21T19:31:23.557Z,6.00
2019-04-21T19:33:48.756Z,6.83
2019-04-21T19:36:08.769Z,6.65
2019-04-21T19:38:49.074Z,6.72
2019-04-21T19:41:28.001Z,6.93
2019-04-21T19:44:03.781Z,6.80
2019-04-21T19:46:31.551Z,7.03
2019-04-21T19:49:13.434Z,6.85
2019-04-21T19:51:35.231Z,7.20
2019-04-21T19:54:02.168Z,6.53
2019-04-21T19:56:30.457Z,6.97
2019-04-21T19:59:01.469Z,7.45
2019-04-21T20:01:35.137Z,7.33
2019-04-21T20:04:14.603Z,7.07
2019-04-21T20:07:00.725Z,7.20
2019-04-21T20:09:36.738Z,7.43
2019-04-21T20:12:10.693Z,7.77
2019-04-21T20:15:37.346Z,8.37
2019-04-21T20:18:16.529Z,8.63
2019-04-21T20:20:40.825Z,10.40
2019-04-21T20:23:19.212Z,10.47
2019-04-21T20:25:50.940Z,10.57
2019-04-21T20:28:33.356Z,11.43
2019-04-21T20:31:15.523Z,11.10
2019-04-21T20:33:59.941Z,11.07
2019-04-21T20:36:43.187Z,11.80
2019-04-21T20:39:03.539Z,12.73
2019-04-21T20:41:40.580Z,12.50
2019-04-21T20:44:19.512Z,11.73
2019-04-21T20:46:51.616Z,12.07
2019-04-21T20:49:19.237Z,12.23
2019-04-21T20:52:04.818Z,12.13
2019-04-21T20:54:31.728Z,11.80
2019-04-21T20:57:06.958Z,12.30
2019-04-21T20:59:31.732Z,12.97
2019-04-21T21:02:16.602Z,13.60
2019-04-21T21:04:32.643Z,12.80
2019-04-21T21:07:30.601Z,14.93
2019-04-21T21:09:55.550Z,13.60
2019-04-21T21:12:34.594Z,14.17
2019-04-21T21:14:52.975Z,14.07
2019-04-21T21:20:21.235Z,13.90
2019-04-21T21:26:36.774Z,13.30
2019-04-21T21:29:11.623Z,12.67
2019-04-21T21:32:05.204Z,12.83
2019-04-21T21:34:32.920Z,12.83
2019-04-21T21:37:17.441Z,13.30
2019-04-21T21:39:48.846Z,12.53
2019-04-21T21:41:59.730Z,12.43
2019-04-21T21:44:28.239Z,12.20
2019-04-21T21:47:12.057Z,12.50
2019-04-21T21:49:43.685Z,12.07
2019-04-21T21:52:14.567Z,12.30
2019-04-21T21:54:36.006Z,12.50
2019-04-21T21:57:10.218Z,12.70
2019-04-21T21:59:41.876Z,12.67
2019-04-21T22:02:17.118Z,12.57
2019-04-21T22:05:05.411Z,12.27
2019-04-21T22:07:38.742Z,12.47
2019-04-21T22:10:32.789Z,13.97
2019-04-21T22:13:14.156Z,15.90
2019-04-21T22:16:10.361Z,16.67
2019-04-21T22:19:07.950Z,18.80
2019-04-21T22:21:53.607Z,19.83
2019-04-21T22:24:36.271Z,18.30
2019-04-21T22:26:49.609Z,18.10
2019-04-21T22:29:21.336Z,16.90
2019-04-21T22:32:04.162Z,20.13
2019-04-21T22:34:35.762Z,18.17
2019-04-21T22:37:22.769Z,18.23
2019-04-21T22:39:53.054Z,17.03
2019-04-21T22:42:18.944Z,16.00
2019-04-21T22:44:44.033Z,15.97
2019-04-21T22:47:21.912Z,16.30
2019-04-21T22:49:46.638Z,17.20
2019-04-21T22:52:23.889Z,17.33
2019-04-21T22:54:55.812Z,18.00
2019-04-21T22:57:32.727Z,17.83
2019-04-21T23:00:07.098Z,18.27
2019-04-21T23:02:38.548Z,17.93
2019-04-21T23:05:09.878Z,17.10
2019-04-21T23:07:50.297Z,16.27
2019-04-21T23:10:17.204Z,15.70
2019-04-21T23:12:52.173Z,14.87
2019-04-21T23:15:35.638Z,14.70
2019-04-21T23:18:17.803Z,14.17
2019-04-21T23:20:53.562Z,13.30
2019-04-21T23:23:35.805Z,12.83
2019-04-21T23:26:11.306Z,12.27
2019-04-21T23:28:55.742Z,11.23
2019-04-21T23:31:19.809Z,11.53
2019-04-21T23:33:33.257Z,10.33
2019-04-21T23:36:12.902Z,10.17
2019-04-21T23:38:44.183Z,9.57
2019-04-21T23:41:15.385Z,9.40
2019-04-21T23:43:53.099Z,9.10
2019-04-21T23:46:28.147Z,8.80
2019-04-21T23:49:07.489Z,9.57
2019-04-21T23:51:37.717Z,9.50
2019-04-21T23:54:01.779Z,9.80
2019-04-21T23:56:39.470Z,10.33
2019-04-21T23:59:11.590Z,9.50
